createdAt,value
2022-08-21T00:00:32.749Z,7.33
2022-08-21T00:03:03.647Z,5.73
2022-08-21T00:05:33.712Z,5.80
2022-08-21T00:08:01.724Z,6.10
2022-08-21T00:10:29.786Z,5.23
2022-08-21T00:12:58.134Z,5.43
2022-08-21T00:15:31.472Z,5.47
2022-08-21T00:17:59.862Z,4.80
2022-08-21T00:20:27.951Z,5.83
2022-08-21T00:22:57.548Z,5.50
2022-08-21T00:25:26.272Z,5.80
2022-08-21T00:27:54.308Z,5.13
2022-08-21T00:30:24.090Z,5.43
2022-08-21T00:32:54.473Z,5.30
2022-08-21T00:35:26.097Z,5.37
2022-08-21T00:37:53.974Z,5.47
2022-08-21T00:40:25.128Z,5.47
2022-08-21T00:42:53.599Z,5.63
2022-08-21T00:45:22.496Z,5.10
2022-08-21T00:47:50.852Z,5.60
2022-08-21T00:50:22.070Z,5.73
2022-08-21T00:52:51.706Z,6.17
2022-08-21T00:55:23.344Z,5.90
2022-08-21T00:57:56.020Z,5.97
2022-08-21T01:00:28.855Z,6.47
2022-08-21T01:02:57.569Z,6.60
2022-08-21T01:05:28.468Z,5.87
2022-08-21T01:07:58.009Z,6.17
2022-08-21T01:10:26.437Z,6.17
2022-08-21T01:12:57.124Z,5.80
2022-08-21T01:15:29.716Z,6.50
2022-08-21T01:17:57.649Z,6.10
2022-08-21T01:20:32.154Z,6.70
2022-08-21T01:23:03.259Z,6.07
2022-08-21T01:25:31.284Z,5.80
2022-08-21T01:28:03.895Z,6.30
2022-08-21T01:30:35.808Z,6.07
2022-08-21T01:33:03.862Z,5.83
2022-08-21T01:35:31.815Z,5.70
2022-08-21T01:37:59.652Z,5.63
2022-08-21T01:40:29.114Z,5.93
2022-08-21T01:42:57.118Z,5.80
2022-08-21T01:45:25.338Z,6.10
2022-08-21T01:47:53.155Z,6.30
2022-08-21T01:50:22.757Z,6.50
2022-08-21T01:52:51.303Z,6.47
2022-08-21T01:55:20.211Z,6.50
2022-08-21T01:57:49.768Z,6.47
2022-08-21T02:00:20.950Z,6.53
2022-08-21T02:02:48.832Z,6.37
2022-08-21T02:05:16.949Z,7.03
2022-08-21T02:07:47.565Z,6.90
2022-08-21T02:10:18.364Z,6.73
2022-08-21T02:12:46.702Z,6.40
2022-08-21T02:15:16.156Z,6.00
2022-08-21T02:17:46.719Z,6.53
2022-08-21T02:20:19.974Z,7.00
2022-08-21T02:22:48.139Z,6.80
2022-08-21T02:25:16.146Z,6.10
2022-08-21T02:27:48.446Z,6.57
2022-08-21T02:30:20.007Z,6.60
2022-08-21T02:32:48.303Z,6.60
2022-08-21T02:35:16.708Z,6.57
2022-08-21T02:37:46.983Z,6.40
2022-08-21T02:40:15.274Z,6.70
2022-08-21T02:42:44.649Z,6.83
2022-08-21T02:45:13.616Z,6.80
2022-08-21T02:47:49.595Z,6.63
2022-08-21T02:50:21.414Z,6.33
2022-08-21T02:52:51.942Z,6.50
2022-08-21T02:55:24.541Z,6.50
2022-08-21T02:57:52.478Z,6.93
2022-08-21T03:00:21.451Z,7.20
2022-08-21T03:02:51.284Z,7.23
2022-08-21T03:05:19.883Z,6.57
2022-08-21T03:07:49.110Z,6.97
2022-08-21T03:10:18.100Z,7.13
2022-08-21T03:12:46.073Z,7.57
2022-08-21T03:15:16.902Z,7.30
2022-08-21T03:17:45.707Z,7.00
2022-08-21T03:20:17.199Z,7.00
2022-08-21T03:22:46.902Z,7.37
2022-08-21T03:25:27.047Z,7.17
2022-08-21T03:28:10.642Z,7.03
2022-08-21T03:30:41.582Z,7.10
2022-08-21T03:33:12.351Z,6.83
2022-08-21T03:35:46.546Z,7.03
2022-08-21T03:38:15.215Z,7.47
2022-08-21T03:40:44.107Z,6.47
2022-08-21T03:43:12.470Z,7.00
2022-08-21T03:45:40.615Z,7.20
2022-08-21T03:48:10.140Z,7.50
2022-08-21T03:50:42.437Z,7.20
2022-08-21T03:53:16.796Z,7.20
2022-08-21T03:55:47.454Z,7.10
2022-08-21T03:58:17.325Z,6.77
2022-08-21T04:00:46.400Z,7.50
2022-08-21T04:03:14.567Z,6.93
2022-08-21T04:05:42.522Z,7.30
2022-08-21T04:08:11.996Z,7.33
2022-08-21T04:10:41.522Z,7.77
2022-08-21T04:13:10.309Z,8.30
2022-08-21T04:15:38.275Z,8.30
2022-08-21T04:18:06.821Z,7.80
2022-08-21T04:20:35.193Z,7.30
2022-08-21T04:23:03.348Z,7.53
2022-08-21T04:25:32.728Z,7.77
2022-08-21T04:28:00.676Z,7.90
2022-08-21T04:30:28.945Z,8.17
2022-08-21T04:32:58.885Z,7.67
2022-08-21T04:35:28.811Z,7.30
2022-08-21T04:37:57.232Z,7.03
2022-08-21T04:40:27.471Z,7.97
2022-08-21T04:43:00.941Z,7.93
2022-08-21T04:45:30.842Z,8.20
2022-08-21T04:48:00.612Z,8.00
2022-08-21T04:50:31.857Z,7.87
2022-08-21T04:53:00.446Z,8.40
2022-08-21T04:55:28.855Z,8.27
2022-08-21T04:57:59.551Z,8.77
2022-08-21T05:00:27.791Z,8.47
2022-08-21T05:03:00.161Z,7.80
2022-08-21T05:05:29.905Z,7.70
2022-08-21T05:07:58.913Z,7.40
2022-08-21T05:10:27.086Z,7.37
2022-08-21T05:12:55.333Z,7.30
2022-08-21T05:15:24.737Z,7.53
2022-08-21T05:18:00.677Z,7.33
2022-08-21T05:20:29.594Z,7.33
2022-08-21T05:22:58.687Z,7.60
2022-08-21T05:25:28.115Z,7.80
2022-08-21T05:27:58.108Z,7.50
2022-08-21T05:30:30.186Z,7.53
2022-08-21T05:33:00.107Z,8.10
2022-08-21T05:35:29.132Z,8.07
2022-08-21T05:37:57.644Z,7.90
2022-08-21T05:40:25.903Z,8.53
2022-08-21T05:42:56.450Z,7.77
2022-08-21T05:45:42.096Z,8.43
2022-08-21T05:48:15.529Z,8.30
2022-08-21T05:50:44.346Z,8.50
2022-08-21T05:53:13.325Z,8.73
2022-08-21T05:55:45.691Z,9.60
2022-08-21T05:58:15.306Z,8.23
2022-08-21T06:00:43.416Z,8.83
2022-08-21T06:03:18.548Z,9.43
2022-08-21T06:05:47.384Z,9.17
2022-08-21T06:08:17.055Z,8.60
2022-08-21T06:10:45.358Z,8.20
2022-08-21T06:13:14.323Z,8.37
2022-08-21T06:15:42.275Z,8.70
2022-08-21T06:18:10.325Z,8.33
2022-08-21T06:20:39.840Z,8.87
2022-08-21T06:23:07.903Z,10.33
2022-08-21T06:25:35.952Z,11.07
2022-08-21T06:28:05.872Z,10.03
2022-08-21T06:30:33.764Z,9.60
2022-08-21T06:33:02.514Z,9.63
2022-08-21T06:35:30.736Z,9.83
2022-08-21T06:38:00.464Z,9.87
2022-08-21T06:40:29.955Z,9.37
2022-08-21T06:42:59.232Z,9.17
2022-08-21T06:45:28.297Z,10.03
2022-08-21T06:48:00.152Z,9.43
2022-08-21T06:50:28.219Z,8.80
2022-08-21T06:53:02.776Z,9.27
2022-08-21T06:55:30.637Z,9.70
2022-08-21T06:57:58.620Z,10.83
2022-08-21T07:00:27.101Z,9.50
2022-08-21T07:02:55.091Z,10.87
2022-08-21T07:05:23.504Z,10.80
2022-08-21T07:07:51.404Z,10.30
2022-08-21T07:10:22.261Z,10.03
2022-08-21T07:12:59.533Z,9.67
2022-08-21T07:15:30.335Z,10.53
2022-08-21T07:17:59.181Z,9.73
2022-08-21T07:20:27.575Z,8.60
2022-08-21T07:22:55.897Z,9.17
2022-08-21T07:25:25.316Z,9.30
2022-08-21T07:27:53.023Z,9.33
2022-08-21T07:30:21.060Z,8.13
2022-08-21T07:32:50.265Z,9.07
2022-08-21T07:35:18.692Z,7.83
2022-08-21T07:37:48.301Z,7.50
2022-08-21T07:40:18.163Z,8.83
2022-08-21T07:42:52.518Z,8.63
2022-08-21T07:45:22.263Z,8.40
2022-08-21T07:47:55.316Z,7.87
2022-08-21T07:50:25.583Z,7.90
2022-08-21T07:52:54.124Z,8.80
2022-08-21T07:55:23.591Z,8.47
2022-08-21T07:57:52.991Z,8.27
2022-08-21T08:00:25.352Z,8.87
2022-08-21T08:02:55.109Z,8.90
2022-08-21T08:05:25.960Z,17.23
2022-08-21T08:07:54.283Z,8.17
2022-08-21T08:10:23.028Z,6.90
2022-08-21T08:12:55.353Z,7.07
2022-08-21T08:15:27.372Z,7.70
2022-08-21T08:17:56.732Z,6.67
2022-08-21T08:20:29.147Z,7.13
2022-08-21T08:22:57.573Z,7.20
2022-08-21T08:25:26.967Z,6.80
2022-08-21T08:27:56.217Z,7.03
2022-08-21T08:30:24.890Z,7.60
2022-08-21T08:32:52.822Z,6.87
2022-08-21T08:35:22.382Z,7.03
2022-08-21T08:37:56.065Z,7.37
2022-08-21T08:40:34.141Z,7.33
2022-08-21T08:43:03.655Z,8.40
2022-08-21T08:45:35.503Z,7.60
2022-08-21T08:48:06.849Z,8.00
2022-08-21T08:50:51.407Z,7.10
2022-08-21T08:53:25.928Z,8.57
2022-08-21T08:55:54.744Z,7.50
2022-08-21T08:58:29.172Z,7.30
2022-08-21T09:00:57.265Z,7.40
2022-08-21T09:03:26.822Z,8.40
2022-08-21T09:06:01.690Z,6.77
2022-08-21T09:08:45.048Z,6.73
2022-08-21T09:11:22.619Z,6.63
2022-08-21T09:13:58.263Z,6.57
2022-08-21T09:16:34.505Z,7.17
2022-08-21T09:19:10.257Z,5.53
2022-08-21T09:21:45.187Z,5.67
2022-08-21T09:24:27.779Z,4.60
2022-08-21T09:27:02.954Z,5.37
2022-08-21T09:29:36.764Z,4.40
2022-08-21T09:32:13.388Z,4.70
2022-08-21T09:34:43.238Z,5.17
2022-08-21T09:37:19.847Z,4.32
2022-08-21T09:39:48.913Z,4.63
2022-08-21T09:42:24.790Z,4.50
2022-08-21T09:45:09.756Z,4.23
2022-08-21T09:47:38.020Z,4.30
2022-08-21T09:50:11.555Z,3.93
2022-08-21T09:52:45.978Z,3.93
2022-08-21T09:55:34.590Z,3.87
2022-08-21T09:58:03.665Z,3.60
2022-08-21T10:00:35.102Z,3.80
2022-08-21T10:03:21.054Z,3.97
2022-08-21T10:05:55.714Z,4.00
2022-08-21T10:08:25.945Z,4.15
2022-08-21T10:10:59.051Z,3.65
2022-08-21T10:13:37.556Z,3.70
2022-08-21T10:16:20.668Z,3.78
2022-08-21T10:18:58.597Z,3.55
2022-08-21T10:21:32.820Z,3.58
2022-08-21T10:24:09.458Z,3.80
2022-08-21T10:26:49.750Z,3.25
2022-08-21T10:29:37.255Z,3.58
2022-08-21T10:32:25.895Z,3.45
2022-08-21T10:35:08.116Z,3.75
2022-08-21T10:37:50.575Z,3.45
2022-08-21T10:40:26.638Z,3.40
2022-08-21T10:43:05.792Z,3.65
2022-08-21T10:45:55.910Z,3.60
2022-08-21T10:48:31.040Z,3.15
2022-08-21T10:51:08.426Z,3.55
2022-08-21T10:53:49.141Z,3.35
2022-08-21T10:56:21.383Z,3.10
2022-08-21T10:59:03.157Z,3.40
2022-08-21T11:01:37.354Z,3.42
2022-08-21T11:04:14.398Z,3.42
2022-08-21T11:06:48.828Z,3.40
2022-08-21T11:09:22.002Z,3.58
2022-08-21T11:11:59.554Z,3.45
2022-08-21T11:14:50.443Z,3.70
2022-08-21T11:17:24.364Z,3.28
2022-08-21T11:20:01.285Z,3.88
2022-08-21T11:22:38.997Z,3.60
2022-08-21T11:25:16.096Z,3.67
2022-08-21T11:27:51.029Z,3.30
2022-08-21T11:30:19.119Z,3.60
2022-08-21T11:33:06.684Z,3.53
2022-08-21T11:35:41.527Z,3.30
2022-08-21T11:38:31.182Z,3.13
2022-08-21T11:41:19.235Z,3.35
2022-08-21T11:43:49.854Z,3.03
2022-08-21T11:46:27.887Z,3.00
2022-08-21T11:49:08.666Z,3.13
2022-08-21T11:51:43.189Z,3.22
2022-08-21T11:54:22.609Z,3.40
2022-08-21T11:56:55.555Z,3.28
2022-08-21T11:59:32.237Z,3.30
2022-08-21T12:02:00.607Z,2.90
2022-08-21T12:04:32.956Z,3.10
2022-08-21T12:07:13.269Z,3.00
2022-08-21T12:09:41.439Z,3.17
2022-08-21T12:12:15.567Z,3.10
2022-08-21T12:14:50.349Z,2.90
2022-08-21T12:17:22.195Z,2.97
2022-08-21T12:19:59.940Z,3.38
2022-08-21T12:22:41.942Z,2.83
2022-08-21T12:25:13.353Z,2.80
2022-08-21T12:27:49.236Z,2.65
2022-08-21T12:30:35.193Z,3.00
2022-08-21T12:33:06.160Z,2.60
2022-08-21T12:35:40.542Z,2.63
2022-08-21T12:38:17.798Z,2.67
2022-08-21T12:40:50.842Z,2.50
2022-08-21T12:43:24.661Z,2.70
2022-08-21T12:45:53.434Z,3.00
2022-08-21T12:48:26.037Z,2.40
2022-08-21T12:50:57.910Z,2.70
2022-08-21T12:53:34.061Z,2.83
2022-08-21T12:56:04.736Z,2.47
2022-08-21T12:58:33.615Z,2.50
2022-08-21T13:01:05.650Z,2.70
2022-08-21T13:03:37.241Z,3.10
2022-08-21T13:06:06.410Z,2.63
2022-08-21T13:08:41.684Z,2.55
2022-08-21T13:11:15.300Z,2.70
2022-08-21T13:13:50.191Z,2.88
2022-08-21T13:16:22.905Z,2.80
2022-08-21T13:18:58.741Z,2.40
2022-08-21T13:21:31.795Z,2.75
2022-08-21T13:24:40.812Z,2.60
2022-08-21T13:27:05.839Z,2.40
2022-08-21T13:29:35.868Z,2.70
2022-08-21T13:32:08.893Z,2.55
2022-08-21T13:34:39.782Z,2.00
2022-08-21T13:37:10.104Z,2.75
2022-08-21T13:39:40.570Z,2.40
2022-08-21T13:42:15.227Z,2.60
2022-08-21T13:44:46.446Z,2.70
2022-08-21T13:47:15.942Z,2.30
2022-08-21T13:49:47.341Z,2.70
2022-08-21T13:52:18.415Z,2.58
2022-08-21T13:54:55.349Z,2.70
2022-08-21T13:57:28.812Z,3.47
2022-08-21T14:00:13.683Z,2.70
2022-08-21T14:02:43.990Z,2.70
2022-08-21T14:05:21.550Z,2.70
2022-08-21T14:07:52.403Z,2.60
2022-08-21T14:10:24.559Z,2.33
2022-08-21T14:12:56.428Z,2.63
2022-08-21T14:15:27.371Z,2.25
2022-08-21T14:17:55.190Z,2.72
2022-08-21T14:20:32.998Z,2.35
2022-08-21T14:23:01.391Z,2.17
2022-08-21T14:25:38.282Z,2.45
2022-08-21T14:28:22.047Z,3.42
2022-08-21T14:30:56.994Z,2.63
2022-08-21T14:33:31.385Z,2.63
2022-08-21T14:36:00.295Z,3.28
2022-08-21T14:38:29.866Z,3.63
2022-08-21T14:41:10.699Z,2.42
2022-08-21T14:43:38.698Z,2.42
2022-08-21T14:46:06.915Z,2.63
2022-08-21T14:48:34.779Z,2.60
2022-08-21T14:51:02.723Z,2.67
2022-08-21T14:53:30.628Z,2.30
2022-08-21T14:56:08.599Z,2.28
2022-08-21T14:58:39.239Z,2.30
2022-08-21T15:01:09.625Z,2.22
2022-08-21T15:03:38.760Z,2.58
2022-08-21T15:06:08.693Z,2.17
2022-08-21T15:08:36.728Z,2.25
2022-08-21T15:11:12.006Z,2.10
2022-08-21T15:13:42.041Z,2.33
2022-08-21T15:16:11.199Z,2.10
2022-08-21T15:18:39.260Z,2.28
2022-08-21T15:21:07.538Z,2.10
2022-08-21T15:23:35.863Z,1.98
2022-08-21T15:26:09.981Z,2.00
2022-08-21T15:28:39.037Z,1.90
2022-08-21T15:31:07.449Z,2.45
2022-08-21T15:33:35.652Z,1.80
2022-08-21T15:36:04.125Z,1.65
2022-08-21T15:38:32.167Z,1.90
2022-08-21T15:41:00.195Z,1.70
2022-08-21T15:43:31.897Z,1.63
2022-08-21T15:46:00.715Z,1.80
2022-08-21T15:48:28.968Z,2.00
2022-08-21T15:50:57.410Z,2.00
2022-08-21T15:53:25.464Z,2.58
2022-08-21T15:55:53.407Z,1.92
2022-08-21T15:58:21.962Z,2.00
2022-08-21T16:00:51.370Z,1.70
2022-08-21T16:03:22.596Z,1.73
2022-08-21T16:05:53.281Z,1.90
2022-08-21T16:08:21.909Z,2.00
2022-08-21T16:10:50.174Z,2.20
2022-08-21T16:13:23.366Z,1.83
2022-08-21T16:15:53.061Z,1.80
2022-08-21T16:18:23.107Z,1.95
2022-08-21T16:20:51.536Z,2.30
2022-08-21T16:23:19.539Z,2.40
2022-08-21T16:25:48.270Z,2.40
2022-08-21T16:28:20.894Z,2.20
2022-08-21T16:30:52.294Z,1.70
2022-08-21T16:33:25.053Z,2.00
2022-08-21T16:35:53.248Z,1.70
2022-08-21T16:38:21.256Z,1.63
2022-08-21T16:40:49.522Z,1.98
2022-08-21T16:43:18.265Z,1.67
2022-08-21T16:45:46.379Z,1.77
2022-08-21T16:48:15.654Z,2.08
2022-08-21T16:50:46.856Z,1.83
2022-08-21T16:53:17.792Z,1.90
2022-08-21T16:55:45.866Z,1.73
2022-08-21T16:58:20.503Z,2.13
2022-08-21T17:00:49.528Z,1.77
2022-08-21T17:03:22.281Z,1.90
2022-08-21T17:05:50.166Z,1.80
2022-08-21T17:08:18.330Z,1.80
2022-08-21T17:10:49.385Z,1.98
2022-08-21T17:13:17.555Z,2.00
2022-08-21T17:15:46.043Z,2.13
2022-08-21T17:18:16.519Z,1.90
2022-08-21T17:20:47.685Z,1.92
2022-08-21T17:23:15.894Z,1.92
2022-08-21T17:25:47.053Z,2.13
2022-08-21T17:28:17.652Z,2.30
2022-08-21T17:30:46.185Z,2.00
2022-08-21T17:33:16.407Z,2.33
2022-08-21T17:35:46.206Z,2.78
2022-08-21T17:38:14.736Z,2.70
2022-08-21T17:40:43.790Z,2.70
2022-08-21T17:43:13.627Z,2.95
2022-08-21T17:45:42.023Z,2.55
2022-08-21T17:48:10.575Z,2.90
2022-08-21T17:50:39.097Z,2.85
2022-08-21T17:53:08.370Z,2.97
2022-08-21T17:55:37.280Z,2.70
2022-08-21T17:58:05.762Z,2.60
2022-08-21T18:00:38.499Z,2.80
2022-08-21T18:03:12.858Z,2.72
2022-08-21T18:05:42.211Z,2.87
2022-08-21T18:08:11.466Z,3.27
2022-08-21T18:10:41.992Z,3.10
2022-08-21T18:13:13.343Z,3.10
2022-08-21T18:15:52.406Z,3.10
2022-08-21T18:18:21.504Z,3.10
2022-08-21T18:20:49.604Z,3.67
2022-08-21T18:23:18.915Z,3.33
2022-08-21T18:25:51.126Z,3.60
2022-08-21T18:28:20.756Z,6.30
2022-08-21T18:30:48.652Z,8.50
2022-08-21T18:33:16.676Z,8.43
2022-08-21T18:35:44.740Z,6.17
2022-08-21T18:38:13.563Z,6.03
2022-08-21T18:40:51.440Z,6.50
2022-08-21T18:43:23.818Z,5.03
2022-08-21T18:45:52.082Z,6.40
2022-08-21T18:48:20.293Z,6.57
2022-08-21T18:50:48.492Z,5.93
2022-08-21T18:53:24.023Z,3.10
2022-08-21T18:56:04.718Z,5.00
2022-08-21T18:58:33.578Z,5.00
2022-08-21T19:01:01.576Z,4.90
2022-08-21T19:03:29.564Z,5.00
2022-08-21T19:05:59.990Z,4.77
2022-08-21T19:08:28.711Z,5.00
2022-08-21T19:11:01.516Z,4.87
2022-08-21T19:13:30.833Z,5.80
2022-08-21T19:16:02.820Z,4.40
2022-08-21T19:18:32.982Z,4.40
2022-08-21T19:21:01.147Z,4.20
2022-08-21T19:23:30.142Z,3.83
2022-08-21T19:26:02.691Z,4.37
2022-08-21T19:28:33.445Z,4.73
2022-08-21T19:31:07.581Z,5.10
2022-08-21T19:33:40.947Z,5.37
2022-08-21T19:36:12.977Z,4.70
2022-08-21T19:38:41.621Z,5.40
2022-08-21T19:41:14.974Z,4.10
2022-08-21T19:43:46.247Z,4.43
2022-08-21T19:46:19.567Z,4.33
2022-08-21T19:48:48.564Z,4.00
2022-08-21T19:51:16.641Z,4.13
2022-08-21T19:53:44.608Z,3.93
2022-08-21T19:56:22.037Z,4.03
2022-08-21T19:58:50.800Z,3.37
2022-08-21T20:01:20.801Z,3.13
2022-08-21T20:06:38.837Z,2.97
2022-08-21T20:09:08.976Z,3.07
2022-08-21T20:11:42.012Z,2.57
2022-08-21T20:14:12.198Z,2.27
2022-08-21T20:16:41.474Z,2.13
2022-08-21T20:19:10.022Z,2.50
2022-08-21T20:21:43.310Z,1.80
2022-08-21T20:24:14.841Z,1.90
2022-08-21T20:26:48.801Z,2.80
2022-08-21T20:29:24.591Z,2.80
2022-08-21T20:32:00.541Z,3.03
2022-08-21T20:34:28.376Z,2.90
2022-08-21T20:36:56.758Z,4.63
2022-08-21T20:39:25.179Z,2.17
2022-08-21T20:41:55.881Z,6.37
2022-08-21T20:44:29.376Z,3.30
2022-08-21T20:46:59.487Z,5.13
2022-08-21T20:49:33.191Z,2.80
2022-08-21T20:52:02.300Z,2.50
2022-08-21T20:54:35.264Z,2.80
2022-08-21T20:57:13.592Z,2.50
2022-08-21T20:59:53.360Z,2.40
2022-08-21T21:02:35.184Z,1.93
2022-08-21T21:05:07.319Z,2.03
2022-08-21T21:07:42.870Z,2.87
2022-08-21T21:10:22.504Z,2.80
2022-08-21T21:12:58.962Z,2.83
2022-08-21T21:15:31.424Z,2.10
2022-08-21T21:18:06.240Z,1.80
2022-08-21T21:20:38.050Z,2.00
2022-08-21T21:23:15.725Z,1.70
2022-08-21T21:25:54.833Z,1.70
2022-08-21T21:28:35.072Z,1.50
2022-08-21T21:31:03.870Z,1.60
2022-08-21T21:33:33.208Z,1.37
2022-08-21T21:36:10.532Z,1.60
2022-08-21T21:38:51.506Z,1.50
2022-08-21T21:41:30.825Z,2.23
2022-08-21T21:44:14.671Z,1.60
2022-08-21T21:46:49.673Z,1.73
2022-08-21T21:49:42.278Z,1.43
2022-08-21T21:52:31.294Z,1.57
2022-08-21T21:55:18.211Z,1.70
2022-08-21T21:58:25.659Z,1.60
2022-08-21T22:01:03.900Z,1.70
2022-08-21T22:03:39.168Z,2.27
2022-08-21T22:06:13.330Z,2.00
2022-08-21T22:08:55.026Z,1.70
2022-08-21T22:11:32.332Z,1.80
2022-08-21T22:14:08.598Z,1.40
2022-08-21T22:16:39.146Z,1.80
2022-08-21T22:19:15.799Z,1.63
2022-08-21T22:21:50.465Z,1.70
2022-08-21T22:24:24.327Z,2.10
2022-08-21T22:27:01.847Z,1.83
2022-08-21T22:29:45.428Z,1.63
2022-08-21T22:32:23.785Z,1.83
2022-08-21T22:35:15.450Z,1.60
2022-08-21T22:37:47.684Z,1.60
2022-08-21T22:40:26.238Z,1.73
2022-08-21T22:43:03.447Z,1.53
2022-08-21T22:49:01.451Z,1.40
2022-08-21T22:51:34.029Z,1.70
2022-08-21T22:54:03.425Z,1.57
2022-08-21T22:56:41.714Z,1.33
2022-08-21T22:59:26.017Z,1.30
2022-08-21T23:01:58.158Z,1.40
2022-08-21T23:04:27.790Z,1.40
2022-08-21T23:06:58.246Z,1.60
2022-08-21T23:09:34.654Z,1.20
2022-08-21T23:12:21.134Z,3.23
2022-08-21T23:14:54.590Z,1.40
2022-08-21T23:17:33.841Z,1.30
2022-08-21T23:20:12.105Z,1.40
2022-08-21T23:22:50.001Z,1.70
2022-08-21T23:25:44.079Z,1.20
2022-08-21T23:28:24.229Z,1.43
2022-08-21T23:31:05.277Z,1.40
2022-08-21T23:33:47.432Z,1.67
2022-08-21T23:36:47.891Z,1.50
2022-08-21T23:39:32.675Z,1.57
2022-08-21T23:42:06.817Z,1.60
2022-08-21T23:44:47.747Z,1.60
2022-08-21T23:47:33.893Z,1.70
2022-08-21T23:50:14.103Z,1.40
2022-08-21T23:52:55.027Z,1.70
2022-08-21T23:55:41.185Z,1.50
2022-08-21T23:58:23.539Z,1.60
